Burnet's Hourly Summary for Monday, May 14, 2018
Hour Temp
(f)
RH
(%)
Solar Rad.
(MJ/m2)
Rainfall
(in)
Wind
(mph)
5/14/2018 12:00 AM 77 76 0 0 5.53
5/14/2018 1:00 AM 75 80 0 0 5.53
5/14/2018 2:00 AM 74 84 0 0 5.27
5/14/2018 3:00 AM 72 85 0 0 5.64
5/14/2018 4:00 AM 72 85 0 0 5.65
5/14/2018 5:00 AM 72 85 0 0 4.61
5/14/2018 6:00 AM 72 85 0 0 3.98
5/14/2018 7:00 AM 72 86 0 0 3.62
5/14/2018 8:00 AM 73 86 0.08 0 3.79
5/14/2018 9:00 AM 75 84 0.82 0 4.8
5/14/2018 10:00 AM 77 75 1.21 0 5.31
5/14/2018 11:00 AM 79 74 1.11 0 5.23
5/14/2018 12:00 PM 82 62 1.95 0 5.92
5/14/2018 1:00 PM 84 57 2.43 0 6.18
5/14/2018 2:00 PM 86 52 2.9 0 5.93
5/14/2018 3:00 PM 86 49 2.18 0 5.87
5/14/2018 4:00 PM 86 49 1.15 0 5.97
5/14/2018 5:00 PM 86 49 1.91 0 6.74
5/14/2018 6:00 PM 86 48 1.09 0 6.11
5/14/2018 7:00 PM 85 49 0.93 0 5.73
5/14/2018 8:00 PM 83 52 0.11 0 4.45
5/14/2018 9:00 PM 81 57 0 0 2.84
5/14/2018 10:00 PM 79 62 0 0 0.99
5/14/2018 11:00 PM 78 82 0 0.01 0.67
Data Summary 78 68 17.87 0.01 4.85